Terminal Aerodrome Forecast
Issued by NWS Los Angeles, CA

Home | Current Version | Previous Version | Text Only | Print | Product List | Glossary On
Versions: 1 2 3 4 5 6 7 8 9 10 11 12 13 14 15 16 17 18 19 20 21 22 23 24 25 26 27 28 29 30 31 32 33
814
FTUS46 KLOX 251103 AAC
TAFSMX
TAF AMD
KSMX 251103Z 2511/2606 29006KT 4SM BR VCFG OVC002
     FM251300 VRB03KT 1 1/2SM BR OVC002
     FM251430 VRB03KT 3SM BR OVC004
     FM251600 30007KT P6SM SKC
     FM252000 31012KT P6SM SKC
     FM260400 VRB05KT P6SM SKC=

USA.gov is the U.S. government's official web portal to all federal, state and local government web resources and services.